sensor_id;sensor_type;location;lat;lon;timestamp;pressure;altitude;pressure_sealevel;temperature;humidity
23659;BME280;12006;42.666;23.326;2023-08-06T00:01:38;77929.69;;;18.89;100.00
23659;BME280;12006;42.666;23.326;2023-08-06T00:04:03;75425.06;;;18.93;100.00
23659;BME280;12006;42.666;23.326;2023-08-06T00:06:28;74181.00;;;19.08;100.00
23659;BME280;12006;42.666;23.326;2023-08-06T00:08:54;72913.31;;;19.24;100.00
23659;BME280;12006;42.666;23.326;2023-08-06T00:11:20;72109.44;;;19.56;100.00
23659;BME280;12006;42.666;23.326;2023-08-06T00:13:45;70390.22;;;19.55;100.00
23659;BME280;12006;42.666;23.326;2023-08-06T00:16:12;69635.50;;;19.68;100.00
23659;BME280;12006;42.666;23.326;2023-08-06T00:18:38;68506.88;;;19.65;100.00
23659;BME280;12006;42.666;23.326;2023-08-06T00:21:04;67694.03;;;19.62;100.00
23659;BME280;12006;42.666;23.326;2023-08-06T00:23:29;67334.19;;;19.75;100.00
23659;BME280;12006;42.666;23.326;2023-08-06T00:25:55;66623.16;;;19.84;100.00
23659;BME280;12006;42.666;23.326;2023-08-06T00:28:20;65636.91;;;19.88;100.00
23659;BME280;12006;42.666;23.326;2023-08-06T00:30:46;65185.41;;;19.79;100.00
23659;BME280;12006;42.666;23.326;2023-08-06T00:33:11;63983.88;;;19.72;100.00
23659;BME280;12006;42.666;23.326;2023-08-06T00:35:36;64566.09;;;19.85;100.00
23659;BME280;12006;42.666;23.326;2023-08-06T00:38:02;65092.97;;;20.05;100.00
23659;BME280;12006;42.666;23.326;2023-08-06T00:40:27;63823.41;;;20.00;100.00
23659;BME280;12006;42.666;23.326;2023-08-06T00:42:55;63376.19;;;19.98;100.00
23659;BME280;12006;42.666;23.326;2023-08-06T00:45:21;63563.88;;;19.99;100.00
23659;BME280;12006;42.666;23.326;2023-08-06T00:47:47;63088.25;;;20.06;100.00
23659;BME280;12006;42.666;23.326;2023-08-06T00:50:13;63012.50;;;20.01;100.00
23659;BME280;12006;42.666;23.326;2023-08-06T00:52:39;63632.94;;;20.22;100.00
23659;BME280;12006;42.666;23.326;2023-08-06T00:55:06;62076.69;;;20.14;100.00
23659;BME280;12006;42.666;23.326;2023-08-06T00:57:32;62495.22;;;20.00;100.00
23659;BME280;12006;42.666;23.326;2023-08-06T00:59:57;62423.25;;;19.96;100.00
23659;BME280;12006;42.666;23.326;2023-08-06T01:02:23;62584.25;;;19.92;100.00
23659;BME280;12006;42.666;23.326;2023-08-06T01:04:48;62082.50;;;19.89;100.00
23659;BME280;12006;42.666;23.326;2023-08-06T01:15:32;60809.97;;;19.94;100.00
23659;BME280;12006;42.666;23.326;2023-08-06T01:18:00;61866.72;;;19.92;100.00
23659;BME280;12006;42.666;23.326;2023-08-06T01:20:30;62617.94;;;20.18;100.00
23659;BME280;12006;42.666;23.326;2023-08-06T01:22:56;62375.13;;;20.35;100.00
23659;BME280;12006;42.666;23.326;2023-08-06T01:25:36;62345.81;;;20.39;100.00
23659;BME280;12006;42.666;23.326;2023-08-06T01:28:31;62299.72;;;20.37;100.00
23659;BME280;12006;42.666;23.326;2023-08-06T01:31:02;59390.03;;;19.89;100.00
23659;BME280;12006;42.666;23.326;2023-08-06T01:33:31;61073.47;;;19.99;100.00
23659;BME280;12006;42.666;23.326;2023-08-06T01:35:57;60649.25;;;19.84;100.00
23659;BME280;12006;42.666;23.326;2023-08-06T01:38:24;61775.69;;;19.89;100.00
23659;BME280;12006;42.666;23.326;2023-08-06T01:40:50;61693.03;;;19.89;100.00
23659;BME280;12006;42.666;23.326;2023-08-06T01:43:15;61903.72;;;20.03;100.00
23659;BME280;12006;42.666;23.326;2023-08-06T01:45:40;62233.03;;;19.94;100.00
23659;BME280;12006;42.666;23.326;2023-08-06T01:48:06;62818.19;;;20.00;100.00
23659;BME280;12006;42.666;23.326;2023-08-06T01:50:31;62813.44;;;19.98;100.00
23659;BME280;12006;42.666;23.326;2023-08-06T01:52:56;63214.09;;;19.91;100.00
23659;BME280;12006;42.666;23.326;2023-08-06T01:55:22;63413.41;;;19.89;100.00
23659;BME280;12006;42.666;23.326;2023-08-06T01:57:47;62995.47;;;19.80;100.00
23659;BME280;12006;42.666;23.326;2023-08-06T02:00:13;64151.53;;;19.84;100.00
23659;BME280;12006;42.666;23.326;2023-08-06T02:02:38;64904.97;;;20.01;100.00
23659;BME280;12006;42.666;23.326;2023-08-06T02:05:06;64313.03;;;19.94;100.00
23659;BME280;12006;42.666;23.326;2023-08-06T02:07:31;63574.03;;;19.87;100.00
23659;BME280;12006;42.666;23.326;2023-08-06T02:09:56;62702.28;;;19.62;100.00
23659;BME280;12006;42.666;23.326;2023-08-06T02:12:22;63947.19;;;19.88;100.00
23659;BME280;12006;42.666;23.326;2023-08-06T02:14:47;63750.91;;;19.81;100.00
23659;BME280;12006;42.666;23.326;2023-08-06T02:17:12;64069.72;;;19.89;100.00
23659;BME280;12006;42.666;23.326;2023-08-06T02:19:38;64567.59;;;19.98;100.00
23659;BME280;12006;42.666;23.326;2023-08-06T02:22:03;65143.00;;;20.04;100.00
23659;BME280;12006;42.666;23.326;2023-08-06T02:24:29;64803.78;;;20.03;100.00
23659;BME280;12006;42.666;23.326;2023-08-06T02:26:54;64687.97;;;19.97;100.00
23659;BME280;12006;42.666;23.326;2023-08-06T02:29:21;64399.44;;;19.74;100.00
23659;BME280;12006;42.666;23.326;2023-08-06T02:31:46;56206.44;;;-138.99;100.00
23659;BME280;12006;42.666;23.326;2023-08-06T02:34:12;56206.44;;;-138.99;100.00
23659;BME280;12006;42.666;23.326;2023-08-06T02:36:37;56206.44;;;-138.99;100.00
23659;BME280;12006;42.666;23.326;2023-08-06T02:39:02;56206.44;;;-138.99;100.00
23659;BME280;12006;42.666;23.326;2023-08-06T02:41:28;56206.44;;;-138.99;100.00
23659;BME280;12006;42.666;23.326;2023-08-06T02:43:53;56206.44;;;-138.99;100.00
23659;BME280;12006;42.666;23.326;2023-08-06T02:46:18;64399.44;;;-133.74;100.00
23659;BME280;12006;42.666;23.326;2023-08-06T02:48:56;56206.44;;;-138.99;100.00
23659;BME280;12006;42.666;23.326;2023-08-06T02:51:22;56206.44;;;-138.99;100.00
23659;BME280;12006;42.666;23.326;2023-08-06T02:53:50;56206.44;;;-138.99;100.00
23659;BME280;12006;42.666;23.326;2023-08-06T02:56:15;56206.44;;;-138.99;100.00
23659;BME280;12006;42.666;23.326;2023-08-06T02:58:41;56206.44;;;-138.99;100.00
23659;BME280;12006;42.666;23.326;2023-08-06T03:01:06;56206.44;;;-138.99;100.00
23659;BME280;12006;42.666;23.326;2023-08-06T03:03:32;56206.44;;;-138.99;100.00
23659;BME280;12006;42.666;23.326;2023-08-06T03:05:58;56206.44;;;-138.99;100.00
23659;BME280;12006;42.666;23.326;2023-08-06T03:08:24;56206.44;;;-138.99;100.00
23659;BME280;12006;42.666;23.326;2023-08-06T03:11:06;56206.44;;;-138.99;100.00
23659;BME280;12006;42.666;23.326;2023-08-06T03:14:05;56214.66;;;-138.99;100.00
23659;BME280;12006;42.666;23.326;2023-08-06T03:16:30;56206.44;;;-138.99;100.00
23659;BME280;12006;42.666;23.326;2023-08-06T03:19:01;56206.44;;;-138.99;100.00
23659;BME280;12006;42.666;23.326;2023-08-06T03:21:27;56206.44;;;-138.99;100.00
23659;BME280;12006;42.666;23.326;2023-08-06T03:23:52;56206.44;;;-138.99;100.00
23659;BME280;12006;42.666;23.326;2023-08-06T03:26:18;56206.44;;;-138.99;100.00
23659;BME280;12006;42.666;23.326;2023-08-06T03:29:40;56206.44;;;-138.99;100.00
23659;BME280;12006;42.666;23.326;2023-08-06T03:33:04;56206.44;;;-138.99;100.00
23659;BME280;12006;42.666;23.326;2023-08-06T03:36:28;56206.44;;;-138.99;100.00
23659;BME280;12006;42.666;23.326;2023-08-06T03:39:52;56206.44;;;-138.99;100.00
23659;BME280;12006;42.666;23.326;2023-08-06T03:43:16;56206.44;;;-138.99;100.00
23659;BME280;12006;42.666;23.326;2023-08-06T03:46:40;56206.44;;;-138.99;100.00
23659;BME280;12006;42.666;23.326;2023-08-06T03:50:04;56206.44;;;-138.99;100.00
23659;BME280;12006;42.666;23.326;2023-08-06T03:53:28;56206.44;;;-138.99;100.00
23659;BME280;12006;42.666;23.326;2023-08-06T03:56:52;56206.44;;;-138.99;100.00
23659;BME280;12006;42.666;23.326;2023-08-06T04:00:16;56206.44;;;-138.99;100.00
23659;BME280;12006;42.666;23.326;2023-08-06T04:03:40;56206.44;;;-138.99;100.00
23659;BME280;12006;42.666;23.326;2023-08-06T04:07:04;56206.44;;;-138.99;100.00
23659;BME280;12006;42.666;23.326;2023-08-06T04:10:28;56206.44;;;-138.99;100.00
23659;BME280;12006;42.666;23.326;2023-08-06T04:13:52;56206.44;;;-138.99;100.00
23659;BME280;12006;42.666;23.326;2023-08-06T04:17:18;56206.44;;;-138.99;100.00
23659;BME280;12006;42.666;23.326;2023-08-06T04:20:45;56206.44;;;-138.99;100.00
23659;BME280;12006;42.666;23.326;2023-08-06T04:24:09;56206.44;;;-138.99;100.00
23659;BME280;12006;42.666;23.326;2023-08-06T04:27:33;56206.44;;;-138.99;100.00
23659;BME280;12006;42.666;23.326;2023-08-06T04:30:58;56206.44;;;-138.99;100.00
23659;BME280;12006;42.666;23.326;2023-08-06T04:34:22;56206.44;;;-138.99;100.00
23659;BME280;12006;42.666;23.326;2023-08-06T04:37:47;56206.44;;;-138.99;100.00
23659;BME280;12006;42.666;23.326;2023-08-06T04:41:11;56206.44;;;-138.99;100.00
23659;BME280;12006;42.666;23.326;2023-08-06T04:44:35;56206.44;;;-138.99;100.00
23659;BME280;12006;42.666;23.326;2023-08-06T04:47:58;56206.44;;;-138.99;100.00
23659;BME280;12006;42.666;23.326;2023-08-06T04:51:22;56206.44;;;-138.99;100.00
23659;BME280;12006;42.666;23.326;2023-08-06T04:54:46;56206.44;;;-138.99;100.00
23659;BME280;12006;42.666;23.326;2023-08-06T04:58:10;56206.44;;;-138.99;100.00
23659;BME280;12006;42.666;23.326;2023-08-06T05:01:34;56206.44;;;-138.99;100.00
23659;BME280;12006;42.666;23.326;2023-08-06T05:04:58;56206.44;;;-138.99;100.00
23659;BME280;12006;42.666;23.326;2023-08-06T05:08:22;56206.44;;;-138.99;100.00
23659;BME280;12006;42.666;23.326;2023-08-06T05:11:46;56206.44;;;-138.99;100.00
23659;BME280;12006;42.666;23.326;2023-08-06T05:15:10;56206.44;;;-138.99;100.00
23659;BME280;12006;42.666;23.326;2023-08-06T05:18:34;56206.44;;;-138.99;100.00
23659;BME280;12006;42.666;23.326;2023-08-06T05:21:58;56206.44;;;-138.99;100.00
23659;BME280;12006;42.666;23.326;2023-08-06T05:25:22;56206.44;;;-138.99;100.00
23659;BME280;12006;42.666;23.326;2023-08-06T05:28:46;56206.44;;;-138.99;100.00
23659;BME280;12006;42.666;23.326;2023-08-06T05:32:10;56206.44;;;-138.99;100.00
23659;BME280;12006;42.666;23.326;2023-08-06T05:35:34;56206.44;;;-138.99;100.00
23659;BME280;12006;42.666;23.326;2023-08-06T05:38:58;56206.44;;;-138.99;100.00
23659;BME280;12006;42.666;23.326;2023-08-06T05:42:22;56206.44;;;-138.99;100.00
23659;BME280;12006;42.666;23.326;2023-08-06T05:45:46;56206.44;;;-138.99;100.00
23659;BME280;12006;42.666;23.326;2023-08-06T05:49:10;56206.44;;;-138.99;100.00
23659;BME280;12006;42.666;23.326;2023-08-06T05:52:36;56206.44;;;-138.99;100.00
23659;BME280;12006;42.666;23.326;2023-08-06T05:56:00;56206.44;;;-138.99;100.00
23659;BME280;12006;42.666;23.326;2023-08-06T05:59:24;56206.44;;;-138.99;100.00
23659;BME280;12006;42.666;23.326;2023-08-06T06:02:47;56206.44;;;-138.99;100.00
23659;BME280;12006;42.666;23.326;2023-08-06T06:06:12;56206.44;;;-138.99;100.00
23659;BME280;12006;42.666;23.326;2023-08-06T06:09:36;56206.44;;;-138.99;100.00
23659;BME280;12006;42.666;23.326;2023-08-06T06:13:00;56206.44;;;-138.99;100.00
23659;BME280;12006;42.666;23.326;2023-08-06T06:16:24;56206.44;;;-138.99;100.00
23659;BME280;12006;42.666;23.326;2023-08-06T06:19:48;56206.44;;;-138.99;100.00
23659;BME280;12006;42.666;23.326;2023-08-06T06:23:12;56206.44;;;-138.99;100.00
23659;BME280;12006;42.666;23.326;2023-08-06T06:26:40;56206.44;;;-138.99;100.00
23659;BME280;12006;42.666;23.326;2023-08-06T06:30:04;56206.44;;;-138.99;100.00
23659;BME280;12006;42.666;23.326;2023-08-06T06:33:28;56206.44;;;-138.99;100.00
23659;BME280;12006;42.666;23.326;2023-08-06T06:36:52;56206.44;;;-138.99;100.00
23659;BME280;12006;42.666;23.326;2023-08-06T06:40:16;56206.44;;;-138.99;100.00
23659;BME280;12006;42.666;23.326;2023-08-06T06:43:40;56206.44;;;-138.99;100.00
23659;BME280;12006;42.666;23.326;2023-08-06T06:47:04;56206.44;;;-138.99;100.00
23659;BME280;12006;42.666;23.326;2023-08-06T06:50:28;56206.44;;;-138.99;100.00
23659;BME280;12006;42.666;23.326;2023-08-06T06:53:52;56206.44;;;-138.99;100.00
23659;BME280;12006;42.666;23.326;2023-08-06T06:57:16;56206.44;;;-138.99;100.00
23659;BME280;12006;42.666;23.326;2023-08-06T07:00:39;56206.44;;;-138.99;100.00
23659;BME280;12006;42.666;23.326;2023-08-06T07:04:03;56206.44;;;-138.99;100.00
23659;BME280;12006;42.666;23.326;2023-08-06T07:07:28;56206.44;;;-138.99;100.00
23659;BME280;12006;42.666;23.326;2023-08-06T07:11:02;56206.44;;;-138.99;100.00
23659;BME280;12006;42.666;23.326;2023-08-06T07:14:28;56206.44;;;-138.99;100.00
23659;BME280;12006;42.666;23.326;2023-08-06T07:17:52;56206.44;;;-138.99;100.00
23659;BME280;12006;42.666;23.326;2023-08-06T07:21:16;56206.44;;;-138.99;100.00
23659;BME280;12006;42.666;23.326;2023-08-06T07:24:39;56206.44;;;-138.99;100.00
23659;BME280;12006;42.666;23.326;2023-08-06T07:28:04;56206.44;;;-138.99;100.00
23659;BME280;12006;42.666;23.326;2023-08-06T07:31:28;56206.44;;;-138.99;100.00
23659;BME280;12006;42.666;23.326;2023-08-06T07:34:52;56206.44;;;-138.99;100.00
23659;BME280;12006;42.666;23.326;2023-08-06T07:38:20;56206.44;;;-138.99;100.00
23659;BME280;12006;42.666;23.326;2023-08-06T07:41:45;56206.44;;;-138.99;100.00
23659;BME280;12006;42.666;23.326;2023-08-06T07:45:09;56206.44;;;-138.99;100.00
23659;BME280;12006;42.666;23.326;2023-08-06T07:48:33;56206.44;;;-138.99;100.00
23659;BME280;12006;42.666;23.326;2023-08-06T07:51:57;56206.44;;;-138.99;100.00
23659;BME280;12006;42.666;23.326;2023-08-06T07:55:21;56206.44;;;-138.99;100.00
23659;BME280;12006;42.666;23.326;2023-08-06T07:58:45;56206.44;;;-138.99;100.00
23659;BME280;12006;42.666;23.326;2023-08-06T08:02:09;56206.44;;;-138.99;100.00
23659;BME280;12006;42.666;23.326;2023-08-06T08:05:33;56206.44;;;-138.99;100.00
23659;BME280;12006;42.666;23.326;2023-08-06T08:08:57;56206.44;;;-138.99;100.00
23659;BME280;12006;42.666;23.326;2023-08-06T08:12:21;56206.44;;;-138.99;100.00
23659;BME280;12006;42.666;23.326;2023-08-06T08:15:44;56206.44;;;-138.99;100.00
23659;BME280;12006;42.666;23.326;2023-08-06T08:19:08;56206.44;;;-138.99;100.00
23659;BME280;12006;42.666;23.326;2023-08-06T08:22:32;56206.44;;;-138.99;100.00
23659;BME280;12006;42.666;23.326;2023-08-06T08:25:56;56206.44;;;-138.99;100.00
23659;BME280;12006;42.666;23.326;2023-08-06T08:29:20;56206.44;;;-138.99;100.00
23659;BME280;12006;42.666;23.326;2023-08-06T08:32:45;56206.44;;;-138.99;100.00
23659;BME280;12006;42.666;23.326;2023-08-06T08:36:08;56206.44;;;-138.99;100.00
23659;BME280;12006;42.666;23.326;2023-08-06T08:39:33;56206.44;;;-138.99;100.00
23659;BME280;12006;42.666;23.326;2023-08-06T08:42:58;56206.44;;;-138.99;100.00
23659;BME280;12006;42.666;23.326;2023-08-06T08:46:25;56206.44;;;-138.99;100.00
23659;BME280;12006;42.666;23.326;2023-08-06T08:49:52;56206.44;;;-138.99;100.00
23659;BME280;12006;42.666;23.326;2023-08-06T08:53:18;56206.44;;;-138.99;100.00
23659;BME280;12006;42.666;23.326;2023-08-06T08:56:47;56206.44;;;-138.99;100.00
23659;BME280;12006;42.666;23.326;2023-08-06T09:00:11;56206.44;;;-138.99;100.00
23659;BME280;12006;42.666;23.326;2023-08-06T09:03:38;56206.44;;;-138.99;100.00
23659;BME280;12006;42.666;23.326;2023-08-06T09:07:03;56206.44;;;-138.99;100.00
23659;BME280;12006;42.666;23.326;2023-08-06T09:10:31;56206.44;;;-138.99;100.00
23659;BME280;12006;42.666;23.326;2023-08-06T09:13:56;56206.44;;;-138.99;100.00
23659;BME280;12006;42.666;23.326;2023-08-06T09:17:20;56206.44;;;-138.99;100.00
23659;BME280;12006;42.666;23.326;2023-08-06T09:20:45;56206.44;;;-138.99;100.00
23659;BME280;12006;42.666;23.326;2023-08-06T09:24:10;56206.44;;;-138.99;100.00
23659;BME280;12006;42.666;23.326;2023-08-06T09:27:38;56206.44;;;-138.99;100.00
23659;BME280;12006;42.666;23.326;2023-08-06T09:31:03;56206.44;;;-138.99;100.00
23659;BME280;12006;42.666;23.326;2023-08-06T09:34:27;56206.44;;;-138.99;100.00
23659;BME280;12006;42.666;23.326;2023-08-06T09:37:52;56206.44;;;-138.99;100.00
23659;BME280;12006;42.666;23.326;2023-08-06T09:41:29;56206.44;;;-138.99;100.00
23659;BME280;12006;42.666;23.326;2023-08-06T09:45:05;56206.44;;;-138.99;100.00
23659;BME280;12006;42.666;23.326;2023-08-06T09:48:29;56206.44;;;-138.99;100.00
23659;BME280;12006;42.666;23.326;2023-08-06T09:51:54;56206.44;;;-138.99;100.00
23659;BME280;12006;42.666;23.326;2023-08-06T09:55:22;56206.44;;;-138.99;100.00
23659;BME280;12006;42.666;23.326;2023-08-06T09:58:47;56206.44;;;-138.99;100.00
23659;BME280;12006;42.666;23.326;2023-08-06T10:02:13;56206.44;;;-138.99;100.00
23659;BME280;12006;42.666;23.326;2023-08-06T10:05:37;56206.44;;;-138.99;100.00
23659;BME280;12006;42.666;23.326;2023-08-06T10:09:03;56206.44;;;-138.99;100.00
23659;BME280;12006;42.666;23.326;2023-08-06T10:12:28;56206.44;;;-138.99;100.00
23659;BME280;12006;42.666;23.326;2023-08-06T10:15:54;56206.44;;;-138.99;100.00
23659;BME280;12006;42.666;23.326;2023-08-06T10:19:18;56206.44;;;-138.99;100.00
23659;BME280;12006;42.666;23.326;2023-08-06T10:23:03;56206.44;;;-138.99;100.00
23659;BME280;12006;42.666;23.326;2023-08-06T10:26:29;56206.44;;;-138.99;100.00
23659;BME280;12006;42.666;23.326;2023-08-06T10:29:53;56206.44;;;-138.99;100.00
23659;BME280;12006;42.666;23.326;2023-08-06T10:33:17;56206.44;;;-138.99;100.00
23659;BME280;12006;42.666;23.326;2023-08-06T10:36:47;56206.44;;;-138.99;100.00
23659;BME280;12006;42.666;23.326;2023-08-06T10:40:14;56206.44;;;-138.99;100.00
23659;BME280;12006;42.666;23.326;2023-08-06T10:43:44;56206.44;;;-138.99;100.00
23659;BME280;12006;42.666;23.326;2023-08-06T10:47:26;56206.44;;;-138.99;100.00
23659;BME280;12006;42.666;23.326;2023-08-06T10:50:51;56206.44;;;-138.99;100.00
23659;BME280;12006;42.666;23.326;2023-08-06T10:54:15;56206.44;;;-138.99;100.00
23659;BME280;12006;42.666;23.326;2023-08-06T10:57:39;56206.44;;;-138.99;100.00
23659;BME280;12006;42.666;23.326;2023-08-06T11:01:04;56206.44;;;-138.99;100.00
23659;BME280;12006;42.666;23.326;2023-08-06T11:04:33;56206.44;;;-138.99;100.00
23659;BME280;12006;42.666;23.326;2023-08-06T11:07:56;56206.44;;;-138.99;100.00
23659;BME280;12006;42.666;23.326;2023-08-06T11:11:21;56206.44;;;-138.99;100.00
23659;BME280;12006;42.666;23.326;2023-08-06T11:14:50;56206.44;;;-138.99;100.00
23659;BME280;12006;42.666;23.326;2023-08-06T11:18:14;56206.44;;;-138.99;100.00
23659;BME280;12006;42.666;23.326;2023-08-06T11:21:39;56206.44;;;-138.99;100.00
23659;BME280;12006;42.666;23.326;2023-08-06T11:25:03;56206.44;;;-138.99;100.00
23659;BME280;12006;42.666;23.326;2023-08-06T11:28:27;56206.44;;;-138.99;100.00
23659;BME280;12006;42.666;23.326;2023-08-06T11:31:51;56206.44;;;-138.99;100.00
23659;BME280;12006;42.666;23.326;2023-08-06T11:35:15;56206.44;;;-138.99;100.00
23659;BME280;12006;42.666;23.326;2023-08-06T11:38:43;56206.44;;;-138.99;100.00
23659;BME280;12006;42.666;23.326;2023-08-06T11:42:07;56206.44;;;-138.99;100.00
23659;BME280;12006;42.666;23.326;2023-08-06T11:45:34;56206.44;;;-138.99;100.00
23659;BME280;12006;42.666;23.326;2023-08-06T11:48:58;56206.44;;;-138.99;100.00
23659;BME280;12006;42.666;23.326;2023-08-06T11:52:24;56206.44;;;-138.99;100.00
23659;BME280;12006;42.666;23.326;2023-08-06T11:56:07;56206.44;;;-138.99;100.00
23659;BME280;12006;42.666;23.326;2023-08-06T11:59:32;56206.44;;;-138.99;100.00
23659;BME280;12006;42.666;23.326;2023-08-06T12:02:56;56206.44;;;-138.99;100.00
23659;BME280;12006;42.666;23.326;2023-08-06T12:06:21;56206.44;;;-138.99;100.00
23659;BME280;12006;42.666;23.326;2023-08-06T12:09:45;56206.44;;;-138.99;100.00
23659;BME280;12006;42.666;23.326;2023-08-06T12:13:09;56206.44;;;-138.99;100.00
23659;BME280;12006;42.666;23.326;2023-08-06T12:16:33;56206.44;;;-138.99;100.00
23659;BME280;12006;42.666;23.326;2023-08-06T12:19:57;56206.44;;;-138.99;100.00
23659;BME280;12006;42.666;23.326;2023-08-06T12:23:21;56206.44;;;-138.99;100.00
23659;BME280;12006;42.666;23.326;2023-08-06T12:26:45;56206.44;;;-138.99;100.00
23659;BME280;12006;42.666;23.326;2023-08-06T12:30:09;56206.44;;;-138.99;100.00
23659;BME280;12006;42.666;23.326;2023-08-06T12:33:33;56206.44;;;-138.99;100.00
23659;BME280;12006;42.666;23.326;2023-08-06T12:36:58;56206.44;;;-138.99;100.00
23659;BME280;12006;42.666;23.326;2023-08-06T12:40:22;56206.44;;;-138.99;100.00
23659;BME280;12006;42.666;23.326;2023-08-06T12:43:48;56206.44;;;-138.99;100.00
23659;BME280;12006;42.666;23.326;2023-08-06T12:47:12;56206.44;;;-138.99;100.00
23659;BME280;12006;42.666;23.326;2023-08-06T12:50:35;56206.44;;;-138.99;100.00
23659;BME280;12006;42.666;23.326;2023-08-06T12:53:59;56206.44;;;-138.99;100.00
23659;BME280;12006;42.666;23.326;2023-08-06T12:57:23;56206.44;;;-138.99;100.00
23659;BME280;12006;42.666;23.326;2023-08-06T13:00:47;56206.44;;;-138.99;100.00
23659;BME280;12006;42.666;23.326;2023-08-06T13:04:11;56206.44;;;-138.99;100.00
23659;BME280;12006;42.666;23.326;2023-08-06T13:07:36;56206.44;;;-138.99;100.00
23659;BME280;12006;42.666;23.326;2023-08-06T13:10:59;56206.44;;;-138.99;100.00
23659;BME280;12006;42.666;23.326;2023-08-06T13:14:23;56206.44;;;-138.99;100.00
23659;BME280;12006;42.666;23.326;2023-08-06T13:17:47;56206.44;;;-138.99;100.00
23659;BME280;12006;42.666;23.326;2023-08-06T13:21:11;56206.44;;;-138.99;100.00
23659;BME280;12006;42.666;23.326;2023-08-06T13:24:36;56206.44;;;-138.99;100.00
23659;BME280;12006;42.666;23.326;2023-08-06T13:28:00;56206.44;;;-138.99;100.00
23659;BME280;12006;42.666;23.326;2023-08-06T13:31:24;56206.44;;;-138.99;100.00
23659;BME280;12006;42.666;23.326;2023-08-06T13:34:48;56206.44;;;-138.99;100.00
23659;BME280;12006;42.666;23.326;2023-08-06T13:38:12;56206.44;;;-138.99;100.00
23659;BME280;12006;42.666;23.326;2023-08-06T13:41:37;56206.44;;;-138.99;100.00
23659;BME280;12006;42.666;23.326;2023-08-06T13:45:01;56206.44;;;-138.99;100.00
23659;BME280;12006;42.666;23.326;2023-08-06T13:48:27;56206.44;;;-138.99;100.00
23659;BME280;12006;42.666;23.326;2023-08-06T13:51:51;56206.44;;;-138.99;100.00
23659;BME280;12006;42.666;23.326;2023-08-06T13:55:15;56206.44;;;-138.99;100.00
23659;BME280;12006;42.666;23.326;2023-08-06T13:58:40;56206.44;;;-138.99;100.00
23659;BME280;12006;42.666;23.326;2023-08-06T14:02:04;56206.44;;;-138.99;100.00
23659;BME280;12006;42.666;23.326;2023-08-06T14:05:28;56206.44;;;-138.99;100.00
23659;BME280;12006;42.666;23.326;2023-08-06T14:08:52;56206.44;;;-138.99;100.00
23659;BME280;12006;42.666;23.326;2023-08-06T14:12:16;56206.44;;;-138.99;100.00
23659;BME280;12006;42.666;23.326;2023-08-06T14:15:39;56206.44;;;-138.99;100.00
23659;BME280;12006;42.666;23.326;2023-08-06T14:19:04;56206.44;;;-138.99;100.00
23659;BME280;12006;42.666;23.326;2023-08-06T14:22:28;56206.44;;;-138.99;100.00
23659;BME280;12006;42.666;23.326;2023-08-06T14:25:54;56206.44;;;-138.99;100.00
23659;BME280;12006;42.666;23.326;2023-08-06T14:29:17;56206.44;;;-138.99;100.00
23659;BME280;12006;42.666;23.326;2023-08-06T14:32:41;56206.44;;;-138.99;100.00
23659;BME280;12006;42.666;23.326;2023-08-06T14:36:05;56206.44;;;-138.99;100.00
23659;BME280;12006;42.666;23.326;2023-08-06T14:39:29;56206.44;;;-138.99;100.00
23659;BME280;12006;42.666;23.326;2023-08-06T14:42:53;56206.44;;;-138.99;100.00
23659;BME280;12006;42.666;23.326;2023-08-06T14:46:17;56206.44;;;-138.99;100.00
23659;BME280;12006;42.666;23.326;2023-08-06T14:49:41;56206.44;;;-138.99;100.00
23659;BME280;12006;42.666;23.326;2023-08-06T14:53:05;56206.44;;;-138.99;100.00
23659;BME280;12006;42.666;23.326;2023-08-06T14:56:29;56206.44;;;-138.99;100.00
23659;BME280;12006;42.666;23.326;2023-08-06T14:59:53;56206.44;;;-138.99;100.00
23659;BME280;12006;42.666;23.326;2023-08-06T15:03:17;56206.44;;;-138.99;100.00
23659;BME280;12006;42.666;23.326;2023-08-06T15:06:42;56206.44;;;-138.99;100.00
23659;BME280;12006;42.666;23.326;2023-08-06T15:10:06;56206.44;;;-138.99;100.00
23659;BME280;12006;42.666;23.326;2023-08-06T15:13:30;56206.44;;;-138.99;100.00
23659;BME280;12006;42.666;23.326;2023-08-06T15:16:54;56206.44;;;-138.99;100.00
23659;BME280;12006;42.666;23.326;2023-08-06T15:20:20;56206.44;;;-138.99;100.00
23659;BME280;12006;42.666;23.326;2023-08-06T15:23:45;56206.44;;;-138.99;100.00
23659;BME280;12006;42.666;23.326;2023-08-06T15:27:09;56206.44;;;-138.99;100.00
23659;BME280;12006;42.666;23.326;2023-08-06T15:30:33;56206.44;;;-138.99;100.00
23659;BME280;12006;42.666;23.326;2023-08-06T15:33:57;56206.44;;;-138.99;100.00
23659;BME280;12006;42.666;23.326;2023-08-06T15:37:21;56206.44;;;-138.99;100.00
23659;BME280;12006;42.666;23.326;2023-08-06T15:40:45;56206.44;;;-138.99;100.00
23659;BME280;12006;42.666;23.326;2023-08-06T15:44:10;56206.44;;;-138.99;100.00
23659;BME280;12006;42.666;23.326;2023-08-06T15:47:34;56206.44;;;-138.99;100.00
23659;BME280;12006;42.666;23.326;2023-08-06T15:51:04;56206.44;;;-138.99;100.00
23659;BME280;12006;42.666;23.326;2023-08-06T15:54:28;56206.44;;;-138.99;100.00
23659;BME280;12006;42.666;23.326;2023-08-06T15:57:52;56206.44;;;-138.99;100.00
23659;BME280;12006;42.666;23.326;2023-08-06T16:01:16;56206.44;;;-138.99;100.00
23659;BME280;12006;42.666;23.326;2023-08-06T16:04:40;56206.44;;;-138.99;100.00